« Back
NWS Peachtree City, Ga » Text Product » CSG Terminal Aerodrome Forecast


Printer-friendly Version
Current Version              Previous Versions:   1  2  3  4  5  6  7  8  9  

Terminal Aerodrome Forecast

795
FTUS42 KFFC 041733
TAFCSG
TAF
KCSG 041733Z 0418/0518 VRB03KT P6SM SCT050 SCT250
     FM050500 04003KT P6SM SCT110
     FM051400 08006KT P6SM SCT050=



USA.gov is the U.S. government's official web portal to all federal, state and local government web resources and services.